RYR20FV EGCC-LOWW
Flight info
| Callsign | RYR20FV |
|---|---|
| Flight time | 1h 59m |
| Altitude | 37000 |
| Route | DESIG L603 DOLAS DCT NAVPI DCT ONUNE DCT BADGO DCT SWALM DCT GASKA DCT ENITA DCT ETVIS DCT BUDWA DCT BUDEX BUDEX2W |
| Aircraft | A320/M-SDE3FGHIRWY/LB1 |
Departure
| Time | 2026-04-21 15:23 |
|---|---|
| Airport | Manchester Airport (EGCC) |
Arrival
| Time | 2026-04-21 17:22 |
|---|---|
| Airport | Vienna International Airport (LOWW) |
| Time | Latitude | Longitude | Altitude | Speed | Heading |
|---|---|---|---|---|---|
| 2026-04-21 14:54 | 53.35974 | -2.26979 | 255 ft | 0 kts | 291° |
| 2026-04-21 15:13 | 53.35965 | -2.26938 | 255 ft | 2 kts | 291° |
| 2026-04-21 15:13 | 53.35959 | -2.26899 | 255 ft | 4 kts | 258° |
| 2026-04-21 15:13 | 53.35971 | -2.26861 | 255 ft | 4 kts | 228° |
| 2026-04-21 15:14 | 53.35986 | -2.26831 | 255 ft | 4 kts | 231° |
| 2026-04-21 15:14 | 53.35993 | -2.26816 | 255 ft | 0 kts | 231° |
| 2026-04-21 15:17 | 53.35993 | -2.26817 | 255 ft | 1 kts | 231° |
| 2026-04-21 15:17 | 53.35972 | -2.26841 | 255 ft | 4 kts | 202° |
| 2026-04-21 15:17 | 53.35947 | -2.26840 | 255 ft | 7 kts | 166° |
| 2026-04-21 15:18 | 53.35888 | -2.26864 | 256 ft | 10 kts | 231° |
| 2026-04-21 15:18 | 53.35851 | -2.26942 | 256 ft | 9 kts | 232° |
| 2026-04-21 15:18 | 53.35799 | -2.27114 | 255 ft | 17 kts | 269° |
| 2026-04-21 15:18 | 53.35808 | -2.27280 | 255 ft | 15 kts | 234° |
| 2026-04-21 15:19 | 53.35747 | -2.27406 | 255 ft | 13 kts | 231° |
| 2026-04-21 15:19 | 53.35687 | -2.27530 | 249 ft | 16 kts | 232° |
| 2026-04-21 15:19 | 53.35603 | -2.27683 | 243 ft | 19 kts | 224° |
| 2026-04-21 15:19 | 53.35503 | -2.27846 | 239 ft | 19 kts | 223° |
| 2026-04-21 15:20 | 53.35407 | -2.28001 | 237 ft | 20 kts | 224° |
| 2026-04-21 15:20 | 53.35292 | -2.28186 | 233 ft | 24 kts | 224° |
| 2026-04-21 15:20 | 53.35185 | -2.28396 | 229 ft | 24 kts | 232° |
| 2026-04-21 15:20 | 53.35082 | -2.28612 | 229 ft | 22 kts | 231° |
| 2026-04-21 15:21 | 53.34991 | -2.28746 | 227 ft | 15 kts | 187° |
| 2026-04-21 15:21 | 53.34910 | -2.28665 | 228 ft | 15 kts | 141° |
| 2026-04-21 15:21 | 53.34853 | -2.28572 | 230 ft | 5 kts | 98° |
| 2026-04-21 15:21 | 53.34870 | -2.28539 | 230 ft | 4 kts | 55° |
| 2026-04-21 15:22 | 53.34891 | -2.28496 | 231 ft | 7 kts | 51° |
| 2026-04-21 15:22 | 53.35024 | -2.28217 | 232 ft | 66 kts | 51° |
| 2026-04-21 15:22 | 53.35450 | -2.27335 | 248 ft | 126 kts | 51° |
| 2026-04-21 15:22 | 53.36052 | -2.26079 | 630 ft | 143 kts | 56° |
| 2026-04-21 15:23 | 53.36696 | -2.24730 | 1285 ft | 153 kts | 55° |
| 2026-04-21 15:23 | 53.37380 | -2.23295 | 1841 ft | 167 kts | 55° |
| 2026-04-21 15:23 | 53.38147 | -2.21669 | 2253 ft | 188 kts | 55° |
| 2026-04-21 15:23 | 53.39000 | -2.19858 | 2721 ft | 205 kts | 55° |
| 2026-04-21 15:24 | 53.39899 | -2.17958 | 3471 ft | 210 kts | 55° |
| 2026-04-21 15:24 | 53.40825 | -2.15996 | 4109 ft | 224 kts | 56° |
| 2026-04-21 15:24 | 53.41816 | -2.13883 | 4854 ft | 235 kts | 56° |
| 2026-04-21 15:24 | 53.42838 | -2.11713 | 5745 ft | 240 kts | 56° |
| 2026-04-21 15:25 | 53.43886 | -2.09481 | 6589 ft | 247 kts | 56° |
| 2026-04-21 15:25 | 53.44952 | -2.07167 | 7351 ft | 254 kts | 57° |
| 2026-04-21 15:25 | 53.46006 | -2.04780 | 8222 ft | 256 kts | 58° |
| 2026-04-21 15:25 | 53.47047 | -2.02385 | 9076 ft | 259 kts | 58° |
| 2026-04-21 15:26 | 53.48114 | -1.99918 | 9916 ft | 264 kts | 58° |
| 2026-04-21 15:26 | 53.49201 | -1.97402 | 10679 ft | 272 kts | 58° |
| 2026-04-21 15:26 | 53.50355 | -1.94708 | 10954 ft | 295 kts | 59° |
| 2026-04-21 15:26 | 53.51316 | -1.91589 | 11390 ft | 305 kts | 73° |
| 2026-04-21 15:27 | 53.51810 | -1.88115 | 12097 ft | 308 kts | 85° |
| 2026-04-21 15:27 | 53.51797 | -1.84500 | 12756 ft | 314 kts | 99° |
| 2026-04-21 15:27 | 53.51245 | -1.80951 | 13527 ft | 316 kts | 107° |
| 2026-04-21 15:27 | 53.50599 | -1.77425 | 14401 ft | 316 kts | 107° |
| 2026-04-21 15:28 | 53.49952 | -1.73861 | 14983 ft | 322 kts | 107° |
| 2026-04-21 15:28 | 53.49287 | -1.70217 | 15560 ft | 329 kts | 107° |
| 2026-04-21 15:28 | 53.48609 | -1.66534 | 16222 ft | 332 kts | 107° |
| 2026-04-21 15:28 | 53.47921 | -1.62820 | 16917 ft | 333 kts | 107° |
| 2026-04-21 15:29 | 53.47226 | -1.59083 | 17530 ft | 338 kts | 107° |
| 2026-04-21 15:29 | 53.46518 | -1.55280 | 18083 ft | 345 kts | 107° |
| 2026-04-21 15:29 | 53.45798 | -1.51412 | 18673 ft | 349 kts | 107° |
| 2026-04-21 15:29 | 53.45071 | -1.47502 | 19222 ft | 353 kts | 107° |
| 2026-04-21 15:30 | 53.44333 | -1.43559 | 19763 ft | 357 kts | 107° |
| 2026-04-21 15:30 | 53.43591 | -1.39618 | 20263 ft | 361 kts | 107° |
| 2026-04-21 15:30 | 53.42827 | -1.35569 | 20777 ft | 365 kts | 107° |
| 2026-04-21 15:30 | 53.42060 | -1.31490 | 21360 ft | 368 kts | 107° |
| 2026-04-21 15:31 | 53.41288 | -1.27383 | 21912 ft | 371 kts | 107° |
| 2026-04-21 15:31 | 53.40502 | -1.23229 | 22413 ft | 376 kts | 107° |
| 2026-04-21 15:31 | 53.39703 | -1.19032 | 22923 ft | 380 kts | 107° |
| 2026-04-21 15:31 | 53.38896 | -1.14802 | 23473 ft | 383 kts | 107° |
| 2026-04-21 15:32 | 53.38084 | -1.10542 | 23980 ft | 386 kts | 107° |
| 2026-04-21 15:32 | 53.37259 | -1.06224 | 24348 ft | 391 kts | 107° |
| 2026-04-21 15:32 | 53.36421 | -1.01854 | 24709 ft | 396 kts | 107° |
| 2026-04-21 15:32 | 53.35572 | -0.97443 | 25096 ft | 400 kts | 107° |
| 2026-04-21 15:33 | 53.34715 | -0.92989 | 25447 ft | 404 kts | 107° |
| 2026-04-21 15:33 | 53.33848 | -0.88488 | 25786 ft | 409 kts | 107° |
| 2026-04-21 15:33 | 53.32969 | -0.83942 | 26124 ft | 413 kts | 107° |
| 2026-04-21 15:33 | 53.32079 | -0.79332 | 26437 ft | 418 kts | 107° |
| 2026-04-21 15:34 | 53.31177 | -0.74675 | 26768 ft | 422 kts | 107° |
| 2026-04-21 15:34 | 53.30274 | -0.70042 | 27104 ft | 426 kts | 107° |
| 2026-04-21 15:34 | 53.29338 | -0.65257 | 27404 ft | 430 kts | 106° |
| 2026-04-21 15:34 | 53.28410 | -0.60530 | 27662 ft | 435 kts | 107° |
| 2026-04-21 15:35 | 53.27462 | -0.55710 | 28035 ft | 437 kts | 107° |
| 2026-04-21 15:35 | 53.26508 | -0.50857 | 28377 ft | 441 kts | 107° |
| 2026-04-21 15:35 | 53.25549 | -0.45979 | 28680 ft | 444 kts | 107° |
| 2026-04-21 15:35 | 53.24580 | -0.41053 | 28966 ft | 448 kts | 107° |
| 2026-04-21 15:36 | 53.23595 | -0.36071 | 29195 ft | 453 kts | 107° |
| 2026-04-21 15:36 | 53.22596 | -0.31053 | 29470 ft | 457 kts | 107° |
| 2026-04-21 15:36 | 53.21583 | -0.25995 | 29756 ft | 461 kts | 107° |
| 2026-04-21 15:36 | 53.20574 | -0.20967 | 30028 ft | 464 kts | 107° |
| 2026-04-21 15:37 | 53.19534 | -0.15779 | 30299 ft | 467 kts | 107° |
| 2026-04-21 15:37 | 53.18514 | -0.10684 | 30549 ft | 471 kts | 107° |
| 2026-04-21 15:37 | 53.17462 | -0.05431 | 30785 ft | 473 kts | 107° |
| 2026-04-21 15:37 | 53.16415 | -0.00225 | 31049 ft | 475 kts | 107° |
| 2026-04-21 15:38 | 53.15378 | 0.04904 | 31418 ft | 472 kts | 107° |
| 2026-04-21 15:38 | 53.14326 | 0.10079 | 31723 ft | 472 kts | 107° |
| 2026-04-21 15:38 | 53.13271 | 0.15254 | 32043 ft | 471 kts | 107° |
| 2026-04-21 15:38 | 53.12215 | 0.20413 | 32381 ft | 470 kts | 107° |
| 2026-04-21 15:39 | 53.11158 | 0.25566 | 32691 ft | 470 kts | 107° |
| 2026-04-21 15:39 | 53.10100 | 0.30717 | 32994 ft | 470 kts | 107° |
| 2026-04-21 15:39 | 53.09045 | 0.35855 | 33308 ft | 470 kts | 107° |
| 2026-04-21 15:39 | 53.07987 | 0.41005 | 33601 ft | 470 kts | 107° |
| 2026-04-21 15:40 | 53.06925 | 0.46158 | 33894 ft | 470 kts | 107° |
| 2026-04-21 15:40 | 53.05865 | 0.51289 | 34217 ft | 470 kts | 107° |
| 2026-04-21 15:40 | 53.04800 | 0.56421 | 34534 ft | 468 kts | 107° |
| 2026-04-21 15:40 | 53.03738 | 0.61524 | 34836 ft | 467 kts | 107° |
| 2026-04-21 15:41 | 53.02671 | 0.66620 | 35108 ft | 466 kts | 107° |
| 2026-04-21 15:41 | 53.01604 | 0.71697 | 35362 ft | 465 kts | 108° |
| 2026-04-21 15:41 | 53.00537 | 0.76765 | 35601 ft | 465 kts | 108° |
| 2026-04-21 15:41 | 52.99469 | 0.81844 | 35792 ft | 466 kts | 107° |
| 2026-04-21 15:42 | 52.98398 | 0.86926 | 35971 ft | 467 kts | 108° |
| 2026-04-21 15:42 | 52.97326 | 0.92009 | 36177 ft | 467 kts | 108° |
| 2026-04-21 15:42 | 52.96250 | 0.97101 | 36372 ft | 467 kts | 108° |
| 2026-04-21 15:42 | 52.95172 | 1.02187 | 36598 ft | 467 kts | 108° |
| 2026-04-21 15:43 | 52.94093 | 1.07248 | 36864 ft | 465 kts | 108° |
| 2026-04-21 15:43 | 52.93008 | 1.12312 | 37077 ft | 465 kts | 108° |
| 2026-04-21 15:43 | 52.91921 | 1.17361 | 37275 ft | 465 kts | 108° |
| 2026-04-21 15:43 | 52.90833 | 1.22407 | 37373 ft | 463 kts | 108° |
| 2026-04-21 15:44 | 52.88688 | 1.32368 | 37396 ft | 462 kts | 108° |
| 2026-04-21 15:44 | 52.86530 | 1.42368 | 37394 ft | 461 kts | 108° |
| 2026-04-21 15:45 | 52.84363 | 1.52365 | 37406 ft | 461 kts | 108° |
| 2026-04-21 15:45 | 52.82191 | 1.62306 | 37380 ft | 458 kts | 108° |
| 2026-04-21 15:46 | 52.80005 | 1.72203 | 37377 ft | 458 kts | 108° |
| 2026-04-21 15:46 | 52.77823 | 1.82089 | 37390 ft | 458 kts | 108° |
| 2026-04-21 15:47 | 52.75635 | 1.91978 | 37391 ft | 458 kts | 108° |
| 2026-04-21 15:47 | 52.73434 | 2.01848 | 37391 ft | 459 kts | 108° |
| 2026-04-21 15:48 | 52.71236 | 2.11657 | 37382 ft | 459 kts | 108° |
| 2026-04-21 15:48 | 52.69019 | 2.21522 | 37375 ft | 459 kts | 108° |
| 2026-04-21 15:49 | 52.66790 | 2.31382 | 37378 ft | 459 kts | 108° |
| 2026-04-21 15:49 | 52.64564 | 2.41227 | 37376 ft | 459 kts | 108° |
| 2026-04-21 15:50 | 52.62322 | 2.51072 | 37391 ft | 459 kts | 109° |
| 2026-04-21 15:50 | 52.60066 | 2.60887 | 37377 ft | 459 kts | 109° |
| 2026-04-21 15:51 | 52.57815 | 2.70632 | 37384 ft | 458 kts | 108° |
| 2026-04-21 15:51 | 52.55544 | 2.80427 | 37378 ft | 458 kts | 109° |
| 2026-04-21 15:52 | 52.53279 | 2.90203 | 37368 ft | 458 kts | 108° |
| 2026-04-21 15:52 | 52.51013 | 2.99964 | 37384 ft | 457 kts | 109° |
| 2026-04-21 15:53 | 52.48734 | 3.09723 | 37370 ft | 457 kts | 108° |
| 2026-04-21 15:53 | 52.46444 | 3.19465 | 37356 ft | 458 kts | 108° |
| 2026-04-21 15:54 | 52.44144 | 3.29199 | 37348 ft | 458 kts | 109° |
| 2026-04-21 15:54 | 52.41829 | 3.38950 | 37341 ft | 458 kts | 109° |
| 2026-04-21 15:55 | 52.39510 | 3.48681 | 37356 ft | 459 kts | 109° |
| 2026-04-21 15:55 | 52.37204 | 3.58336 | 37353 ft | 458 kts | 109° |
| 2026-04-21 15:56 | 52.34861 | 3.68083 | 37353 ft | 457 kts | 109° |
| 2026-04-21 15:56 | 52.32544 | 3.77693 | 37349 ft | 457 kts | 109° |
| 2026-04-21 15:57 | 52.30204 | 3.87363 | 37340 ft | 457 kts | 110° |
| 2026-04-21 15:57 | 52.27847 | 3.97009 | 37352 ft | 456 kts | 109° |
| 2026-04-21 15:58 | 52.25495 | 4.06617 | 37351 ft | 455 kts | 110° |
| 2026-04-21 15:58 | 52.23139 | 4.16189 | 37339 ft | 455 kts | 110° |
| 2026-04-21 15:59 | 52.20789 | 4.25696 | 37335 ft | 454 kts | 110° |
| 2026-04-21 15:59 | 52.18422 | 4.35246 | 37306 ft | 454 kts | 110° |
| 2026-04-21 16:00 | 52.16047 | 4.44820 | 37304 ft | 455 kts | 110° |
| 2026-04-21 16:00 | 52.14070 | 4.52738 | 37303 ft | 455 kts | 110° |
| 2026-04-21 16:01 | 52.11672 | 4.62290 | 37306 ft | 455 kts | 110° |
| 2026-04-21 16:01 | 52.08876 | 4.73368 | 37320 ft | 455 kts | 110° |
| 2026-04-21 16:02 | 52.06857 | 4.81341 | 37317 ft | 455 kts | 110° |
| 2026-04-21 16:02 | 52.04442 | 4.90865 | 37338 ft | 455 kts | 110° |
| 2026-04-21 16:03 | 52.02031 | 5.00318 | 37321 ft | 455 kts | 110° |
| 2026-04-21 16:03 | 51.99587 | 5.09806 | 37316 ft | 455 kts | 110° |
| 2026-04-21 16:04 | 51.97147 | 5.19275 | 37312 ft | 455 kts | 110° |
| 2026-04-21 16:04 | 51.94703 | 5.28748 | 37312 ft | 455 kts | 111° |
| 2026-04-21 16:05 | 51.92260 | 5.38194 | 37318 ft | 455 kts | 111° |
| 2026-04-21 16:05 | 51.89804 | 5.47659 | 37314 ft | 455 kts | 111° |
| 2026-04-21 16:06 | 51.87327 | 5.57105 | 37319 ft | 456 kts | 111° |
| 2026-04-21 16:06 | 51.84835 | 5.66549 | 37303 ft | 456 kts | 111° |
| 2026-04-21 16:07 | 51.82358 | 5.75925 | 37297 ft | 456 kts | 111° |
| 2026-04-21 16:07 | 51.79868 | 5.85350 | 37319 ft | 456 kts | 111° |
| 2026-04-21 16:08 | 51.76105 | 5.99467 | 37301 ft | 455 kts | 111° |
| 2026-04-21 16:09 | 51.73586 | 6.08848 | 37298 ft | 455 kts | 111° |
| 2026-04-21 16:09 | 51.71067 | 6.18215 | 37289 ft | 455 kts | 111° |
| 2026-04-21 16:10 | 51.68517 | 6.27663 | 37285 ft | 454 kts | 111° |
| 2026-04-21 16:10 | 51.66030 | 6.36849 | 37300 ft | 454 kts | 111° |
| 2026-04-21 16:11 | 51.63501 | 6.46158 | 37297 ft | 454 kts | 111° |
| 2026-04-21 16:11 | 51.60962 | 6.55465 | 37286 ft | 454 kts | 112° |
| 2026-04-21 16:12 | 51.58408 | 6.64770 | 37279 ft | 455 kts | 112° |
| 2026-04-21 16:12 | 51.55846 | 6.74067 | 37278 ft | 455 kts | 112° |
| 2026-04-21 16:13 | 51.53280 | 6.83364 | 37290 ft | 455 kts | 111° |
| 2026-04-21 16:13 | 51.50699 | 6.92661 | 37286 ft | 455 kts | 112° |
| 2026-04-21 16:14 | 51.48116 | 7.01939 | 37286 ft | 456 kts | 112° |
| 2026-04-21 16:14 | 51.45515 | 7.11222 | 37287 ft | 456 kts | 112° |
| 2026-04-21 16:15 | 51.42922 | 7.20434 | 37294 ft | 456 kts | 112° |
| 2026-04-21 16:15 | 51.40311 | 7.29691 | 37290 ft | 456 kts | 112° |
| 2026-04-21 16:16 | 51.37688 | 7.38943 | 37286 ft | 456 kts | 112° |
| 2026-04-21 16:16 | 51.34948 | 7.48092 | 37283 ft | 456 kts | 115° |
| 2026-04-21 16:17 | 51.31975 | 7.56986 | 37275 ft | 456 kts | 116° |
| 2026-04-21 16:17 | 51.28933 | 7.65903 | 37287 ft | 457 kts | 116° |
| 2026-04-21 16:18 | 51.25935 | 7.74858 | 37269 ft | 457 kts | 116° |
| 2026-04-21 16:18 | 51.22959 | 7.83836 | 37272 ft | 457 kts | 116° |
| 2026-04-21 16:19 | 51.19987 | 7.92769 | 37269 ft | 456 kts | 116° |
| 2026-04-21 16:19 | 51.16990 | 8.01704 | 37269 ft | 457 kts | 116° |
| 2026-04-21 16:20 | 51.14004 | 8.10569 | 37278 ft | 457 kts | 116° |
| 2026-04-21 16:20 | 51.10991 | 8.19482 | 37275 ft | 457 kts | 116° |
| 2026-04-21 16:21 | 51.07911 | 8.28323 | 37277 ft | 457 kts | 118° |
| 2026-04-21 16:21 | 51.04581 | 8.36954 | 37273 ft | 458 kts | 120° |
| 2026-04-21 16:22 | 51.01176 | 8.45509 | 37261 ft | 458 kts | 120° |
| 2026-04-21 16:22 | 50.97809 | 8.54099 | 37270 ft | 458 kts | 120° |
| 2026-04-21 16:23 | 50.94465 | 8.62723 | 37264 ft | 458 kts | 120° |
| 2026-04-21 16:23 | 50.91121 | 8.71335 | 37268 ft | 458 kts | 120° |
| 2026-04-21 16:24 | 50.87787 | 8.79870 | 37268 ft | 458 kts | 120° |
| 2026-04-21 16:24 | 50.84423 | 8.88440 | 37265 ft | 458 kts | 120° |
| 2026-04-21 16:25 | 50.81057 | 8.96999 | 37263 ft | 458 kts | 120° |
| 2026-04-21 16:25 | 50.77687 | 9.05550 | 37261 ft | 458 kts | 120° |
| 2026-04-21 16:26 | 50.74301 | 9.14095 | 37261 ft | 458 kts | 120° |
| 2026-04-21 16:26 | 50.70931 | 9.22640 | 37260 ft | 458 kts | 118° |
| 2026-04-21 16:27 | 50.67906 | 9.31398 | 37259 ft | 457 kts | 115° |
| 2026-04-21 16:27 | 50.65056 | 9.40343 | 37271 ft | 456 kts | 115° |
| 2026-04-21 16:28 | 50.62152 | 9.49232 | 37267 ft | 456 kts | 116° |
| 2026-04-21 16:28 | 50.59172 | 9.58043 | 37265 ft | 456 kts | 116° |
| 2026-04-21 16:29 | 50.56166 | 9.66829 | 37257 ft | 455 kts | 116° |
| 2026-04-21 16:29 | 50.53172 | 9.75610 | 37259 ft | 455 kts | 116° |
| 2026-04-21 16:30 | 50.50184 | 9.84376 | 37266 ft | 455 kts | 116° |
| 2026-04-21 16:30 | 50.47188 | 9.93122 | 37260 ft | 455 kts | 116° |
| 2026-04-21 16:31 | 50.44205 | 10.01795 | 37251 ft | 455 kts | 116° |
| 2026-04-21 16:31 | 50.41197 | 10.10533 | 37235 ft | 456 kts | 116° |
| 2026-04-21 16:32 | 50.38178 | 10.19279 | 37228 ft | 456 kts | 117° |
| 2026-04-21 16:32 | 50.35148 | 10.28015 | 37243 ft | 456 kts | 116° |
| 2026-04-21 16:33 | 50.32403 | 10.36953 | 37243 ft | 455 kts | 111° |
| 2026-04-21 16:33 | 50.29935 | 10.46072 | 37237 ft | 455 kts | 111° |
| 2026-04-21 16:34 | 50.27453 | 10.55178 | 37236 ft | 455 kts | 111° |
| 2026-04-21 16:34 | 50.24879 | 10.64221 | 37250 ft | 455 kts | 112° |
| 2026-04-21 16:35 | 50.22260 | 10.73243 | 37242 ft | 455 kts | 112° |
| 2026-04-21 16:35 | 50.19647 | 10.82247 | 37240 ft | 455 kts | 112° |
| 2026-04-21 16:36 | 50.17036 | 10.91247 | 37224 ft | 455 kts | 112° |
| 2026-04-21 16:36 | 50.14420 | 11.00238 | 37223 ft | 455 kts | 112° |
| 2026-04-21 16:37 | 50.11795 | 11.09239 | 37225 ft | 455 kts | 112° |
| 2026-04-21 16:37 | 50.09179 | 11.18160 | 37209 ft | 456 kts | 112° |
| 2026-04-21 16:38 | 50.06536 | 11.27152 | 37207 ft | 457 kts | 113° |
| 2026-04-21 16:38 | 50.03875 | 11.36156 | 37195 ft | 458 kts | 113° |
| 2026-04-21 16:39 | 50.01209 | 11.45157 | 37200 ft | 458 kts | 113° |
| 2026-04-21 16:39 | 49.98529 | 11.54152 | 37210 ft | 458 kts | 113° |
| 2026-04-21 16:40 | 49.95847 | 11.63136 | 37213 ft | 459 kts | 113° |
| 2026-04-21 16:40 | 49.93165 | 11.72122 | 37203 ft | 459 kts | 113° |
| 2026-04-21 16:41 | 49.90918 | 11.79589 | 37201 ft | 459 kts | 113° |
| 2026-04-21 16:41 | 49.87768 | 11.90020 | 37200 ft | 459 kts | 113° |
| 2026-04-21 16:42 | 49.85055 | 11.98990 | 37204 ft | 459 kts | 113° |
| 2026-04-21 16:42 | 49.82335 | 12.07943 | 37196 ft | 459 kts | 114° |
| 2026-04-21 16:43 | 49.79609 | 12.16872 | 37197 ft | 459 kts | 114° |
| 2026-04-21 16:43 | 49.76872 | 12.25793 | 37199 ft | 459 kts | 114° |
| 2026-04-21 16:44 | 49.74128 | 12.34715 | 37196 ft | 459 kts | 114° |
| 2026-04-21 16:44 | 49.71368 | 12.43644 | 37190 ft | 460 kts | 114° |
| 2026-04-21 16:45 | 49.69430 | 12.52989 | 37195 ft | 457 kts | 100° |
| 2026-04-21 16:45 | 49.68111 | 12.62525 | 37196 ft | 458 kts | 100° |
| 2026-04-21 16:46 | 49.66757 | 12.72139 | 37211 ft | 458 kts | 100° |
| 2026-04-21 16:46 | 49.65024 | 12.81582 | 37205 ft | 460 kts | 113° |
| 2026-04-21 16:47 | 49.61705 | 12.90019 | 37277 ft | 460 kts | 124° |
| 2026-04-21 16:47 | 49.58083 | 12.98151 | 37194 ft | 461 kts | 123° |
| 2026-04-21 16:48 | 49.54445 | 13.06304 | 37196 ft | 461 kts | 123° |
| 2026-04-21 16:48 | 49.50802 | 13.14434 | 37211 ft | 461 kts | 123° |
| 2026-04-21 16:49 | 49.47765 | 13.21184 | 37211 ft | 461 kts | 123° |
| 2026-04-21 16:49 | 49.44108 | 13.29292 | 37210 ft | 462 kts | 123° |
| 2026-04-21 16:50 | 49.40443 | 13.37403 | 37198 ft | 462 kts | 124° |
| 2026-04-21 16:50 | 49.36769 | 13.45507 | 37191 ft | 463 kts | 124° |
| 2026-04-21 16:51 | 49.33077 | 13.53633 | 37200 ft | 464 kts | 124° |
| 2026-04-21 16:51 | 49.29382 | 13.61737 | 37199 ft | 464 kts | 124° |
| 2026-04-21 16:52 | 49.25625 | 13.69813 | 37208 ft | 465 kts | 125° |
| 2026-04-21 16:52 | 49.21825 | 13.77729 | 37208 ft | 465 kts | 126° |
| 2026-04-21 16:53 | 49.17964 | 13.85729 | 37222 ft | 465 kts | 126° |
| 2026-04-21 16:53 | 49.14130 | 13.93617 | 37167 ft | 466 kts | 126° |
| 2026-04-21 16:53 | 49.12194 | 13.97577 | 36906 ft | 465 kts | 126° |
| 2026-04-21 16:54 | 49.10259 | 14.01523 | 36664 ft | 465 kts | 126° |
| 2026-04-21 16:54 | 49.08310 | 14.05480 | 36371 ft | 465 kts | 126° |
| 2026-04-21 16:54 | 49.06380 | 14.09389 | 35813 ft | 463 kts | 126° |
| 2026-04-21 16:54 | 49.04440 | 14.13315 | 35249 ft | 461 kts | 126° |
| 2026-04-21 16:55 | 49.02515 | 14.17206 | 34676 ft | 459 kts | 126° |
| 2026-04-21 16:55 | 49.00595 | 14.21088 | 34064 ft | 458 kts | 126° |
| 2026-04-21 16:55 | 48.98681 | 14.24961 | 33454 ft | 455 kts | 126° |
| 2026-04-21 16:55 | 48.96782 | 14.28797 | 32908 ft | 451 kts | 126° |
| 2026-04-21 16:56 | 48.94896 | 14.32601 | 32332 ft | 448 kts | 127° |
| 2026-04-21 16:56 | 48.93023 | 14.36369 | 31776 ft | 445 kts | 127° |
| 2026-04-21 16:56 | 48.91158 | 14.40113 | 31226 ft | 442 kts | 127° |
| 2026-04-21 16:56 | 48.89308 | 14.43819 | 30695 ft | 439 kts | 127° |
| 2026-04-21 16:57 | 48.87465 | 14.47503 | 30149 ft | 437 kts | 127° |
| 2026-04-21 16:57 | 48.85632 | 14.51170 | 29580 ft | 432 kts | 127° |
| 2026-04-21 16:57 | 48.83826 | 14.54780 | 29079 ft | 427 kts | 127° |
| 2026-04-21 16:57 | 48.82041 | 14.58343 | 28598 ft | 422 kts | 127° |
| 2026-04-21 16:58 | 48.80296 | 14.61822 | 28109 ft | 417 kts | 128° |
| 2026-04-21 16:58 | 48.78548 | 14.65303 | 27634 ft | 413 kts | 128° |
| 2026-04-21 16:58 | 48.76815 | 14.68750 | 27168 ft | 409 kts | 128° |
| 2026-04-21 16:58 | 48.75259 | 14.72302 | 26936 ft | 399 kts | 115° |
| 2026-04-21 16:59 | 48.74337 | 14.76173 | 26843 ft | 385 kts | 105° |
| 2026-04-21 16:59 | 48.73599 | 14.80010 | 26739 ft | 372 kts | 105° |
| 2026-04-21 16:59 | 48.72888 | 14.83725 | 26646 ft | 367 kts | 105° |
| 2026-04-21 16:59 | 48.72178 | 14.87455 | 26567 ft | 368 kts | 105° |
| 2026-04-21 17:00 | 48.71470 | 14.91178 | 26483 ft | 368 kts | 105° |
| 2026-04-21 17:00 | 48.70760 | 14.94919 | 26384 ft | 368 kts | 105° |
| 2026-04-21 17:00 | 48.70281 | 14.97432 | 26334 ft | 368 kts | 105° |
| 2026-04-21 17:00 | 48.69341 | 15.02355 | 26224 ft | 367 kts | 105° |
| 2026-04-21 17:01 | 48.68631 | 15.06066 | 26149 ft | 366 kts | 105° |
| 2026-04-21 17:01 | 48.67921 | 15.09769 | 26060 ft | 366 kts | 105° |
| 2026-04-21 17:01 | 48.67210 | 15.13465 | 25971 ft | 365 kts | 105° |
| 2026-04-21 17:01 | 48.66502 | 15.17147 | 25890 ft | 365 kts | 105° |
| 2026-04-21 17:02 | 48.65794 | 15.20824 | 25806 ft | 364 kts | 105° |
| 2026-04-21 17:02 | 48.65083 | 15.24495 | 25732 ft | 366 kts | 105° |
| 2026-04-21 17:02 | 48.64350 | 15.28282 | 25734 ft | 383 kts | 105° |
| 2026-04-21 17:02 | 48.63594 | 15.32184 | 25735 ft | 389 kts | 105° |
| 2026-04-21 17:03 | 48.62837 | 15.36065 | 25737 ft | 390 kts | 105° |
| 2026-04-21 17:03 | 48.62065 | 15.39998 | 25742 ft | 391 kts | 105° |
| 2026-04-21 17:03 | 48.61293 | 15.43934 | 25740 ft | 391 kts | 105° |
| 2026-04-21 17:03 | 48.60519 | 15.47880 | 25497 ft | 390 kts | 106° |
| 2026-04-21 17:04 | 48.59752 | 15.51789 | 25129 ft | 386 kts | 105° |
| 2026-04-21 17:04 | 48.58993 | 15.55659 | 24661 ft | 384 kts | 105° |
| 2026-04-21 17:04 | 48.58232 | 15.59519 | 24173 ft | 383 kts | 106° |
| 2026-04-21 17:04 | 48.57470 | 15.63360 | 23675 ft | 382 kts | 105° |
| 2026-04-21 17:05 | 48.56710 | 15.67196 | 23126 ft | 380 kts | 105° |
| 2026-04-21 17:05 | 48.55955 | 15.71008 | 22640 ft | 377 kts | 105° |
| 2026-04-21 17:05 | 48.55206 | 15.74791 | 22161 ft | 374 kts | 105° |
| 2026-04-21 17:05 | 48.54460 | 15.78544 | 21684 ft | 372 kts | 106° |
| 2026-04-21 17:06 | 48.53714 | 15.82284 | 21207 ft | 370 kts | 106° |
| 2026-04-21 17:06 | 48.52973 | 15.85982 | 20745 ft | 367 kts | 106° |
| 2026-04-21 17:06 | 48.52234 | 15.89663 | 20280 ft | 365 kts | 106° |
| 2026-04-21 17:06 | 48.51507 | 15.93279 | 19808 ft | 364 kts | 106° |
| 2026-04-21 17:07 | 48.50775 | 15.96917 | 19366 ft | 362 kts | 106° |
| 2026-04-21 17:07 | 48.50048 | 16.00543 | 18913 ft | 360 kts | 105° |
| 2026-04-21 17:07 | 48.49321 | 16.04150 | 18463 ft | 359 kts | 107° |
| 2026-04-21 17:07 | 48.48316 | 16.07589 | 17956 ft | 358 kts | 120° |
| 2026-04-21 17:08 | 48.46818 | 16.10577 | 17540 ft | 355 kts | 133° |
| 2026-04-21 17:08 | 48.44895 | 16.12843 | 17130 ft | 351 kts | 152° |
| 2026-04-21 17:08 | 48.42710 | 16.14438 | 16732 ft | 347 kts | 158° |
| 2026-04-21 17:08 | 48.40466 | 16.15745 | 16335 ft | 345 kts | 160° |
| 2026-04-21 17:09 | 48.36000 | 16.18235 | 15557 ft | 339 kts | 160° |
| 2026-04-21 17:09 | 48.33792 | 16.19456 | 15164 ft | 337 kts | 160° |
| 2026-04-21 17:09 | 48.31599 | 16.20661 | 14787 ft | 334 kts | 160° |
| 2026-04-21 17:10 | 48.29443 | 16.21842 | 14419 ft | 333 kts | 160° |
| 2026-04-21 17:10 | 48.27246 | 16.23039 | 14047 ft | 331 kts | 160° |
| 2026-04-21 17:10 | 48.25084 | 16.24204 | 13647 ft | 329 kts | 160° |
| 2026-04-21 17:10 | 48.22956 | 16.25340 | 13180 ft | 328 kts | 160° |
| 2026-04-21 17:11 | 48.20799 | 16.26486 | 12723 ft | 327 kts | 160° |
| 2026-04-21 17:11 | 48.18655 | 16.27620 | 12271 ft | 326 kts | 160° |
| 2026-04-21 17:11 | 48.16520 | 16.28746 | 11820 ft | 325 kts | 160° |
| 2026-04-21 17:11 | 48.14393 | 16.29865 | 11424 ft | 322 kts | 160° |
| 2026-04-21 17:12 | 48.12285 | 16.30974 | 11031 ft | 320 kts | 160° |
| 2026-04-21 17:12 | 48.10199 | 16.32074 | 10657 ft | 317 kts | 160° |
| 2026-04-21 17:12 | 48.08128 | 16.33165 | 10272 ft | 314 kts | 160° |
| 2026-04-21 17:12 | 48.06063 | 16.34249 | 9896 ft | 312 kts | 160° |
| 2026-04-21 17:13 | 48.04026 | 16.35314 | 9490 ft | 309 kts | 160° |
| 2026-04-21 17:13 | 48.01998 | 16.36364 | 9081 ft | 307 kts | 160° |
| 2026-04-21 17:13 | 47.99988 | 16.37393 | 8676 ft | 304 kts | 160° |
| 2026-04-21 17:13 | 47.97990 | 16.38404 | 8278 ft | 301 kts | 160° |
| 2026-04-21 17:14 | 47.96013 | 16.39392 | 7893 ft | 299 kts | 160° |
| 2026-04-21 17:14 | 47.94049 | 16.40360 | 7501 ft | 296 kts | 160° |
| 2026-04-21 17:14 | 47.92102 | 16.41307 | 7124 ft | 293 kts | 160° |
| 2026-04-21 17:14 | 47.90175 | 16.42238 | 6746 ft | 290 kts | 159° |
| 2026-04-21 17:15 | 47.88448 | 16.43678 | 6357 ft | 281 kts | 133° |
| 2026-04-21 17:15 | 47.87392 | 16.46006 | 5951 ft | 267 kts | 104° |
| 2026-04-21 17:15 | 47.87196 | 16.48620 | 5560 ft | 251 kts | 79° |
| 2026-04-21 17:15 | 47.87426 | 16.51119 | 5174 ft | 237 kts | 76° |
| 2026-04-21 17:16 | 47.87686 | 16.53483 | 4788 ft | 226 kts | 76° |
| 2026-04-21 17:16 | 47.87947 | 16.55780 | 4396 ft | 223 kts | 75° |
| 2026-04-21 17:16 | 47.88195 | 16.58019 | 4006 ft | 216 kts | 76° |
| 2026-04-21 17:16 | 47.88439 | 16.60216 | 3675 ft | 215 kts | 75° |
| 2026-04-21 17:17 | 47.88750 | 16.62384 | 3368 ft | 211 kts | 61° |
| 2026-04-21 17:17 | 47.89582 | 16.64118 | 3066 ft | 203 kts | 39° |
| 2026-04-21 17:17 | 47.90713 | 16.65253 | 3002 ft | 192 kts | 21° |
| 2026-04-21 17:17 | 47.91984 | 16.65775 | 3004 ft | 188 kts | 4° |
| 2026-04-21 17:18 | 47.93282 | 16.65680 | 3001 ft | 188 kts | 348° |
| 2026-04-21 17:18 | 47.94546 | 16.65162 | 3007 ft | 188 kts | 346° |
| 2026-04-21 17:18 | 47.95767 | 16.64649 | 3009 ft | 175 kts | 346° |
| 2026-04-21 17:18 | 47.96919 | 16.64165 | 3003 ft | 170 kts | 345° |
| 2026-04-21 17:19 | 47.98060 | 16.63686 | 2849 ft | 169 kts | 346° |
| 2026-04-21 17:19 | 47.99182 | 16.63214 | 2648 ft | 167 kts | 346° |
| 2026-04-21 17:19 | 48.00291 | 16.62747 | 2428 ft | 162 kts | 346° |
| 2026-04-21 17:19 | 48.01302 | 16.62321 | 2235 ft | 142 kts | 346° |
| 2026-04-21 17:20 | 48.02223 | 16.61933 | 2042 ft | 134 kts | 345° |
| 2026-04-21 17:20 | 48.03109 | 16.61561 | 1862 ft | 130 kts | 346° |
| 2026-04-21 17:20 | 48.03995 | 16.61188 | 1667 ft | 133 kts | 345° |
| 2026-04-21 17:20 | 48.04895 | 16.60810 | 1503 ft | 135 kts | 346° |
| 2026-04-21 17:21 | 48.05798 | 16.60435 | 1294 ft | 134 kts | 345° |
| 2026-04-21 17:21 | 48.06696 | 16.60046 | 1101 ft | 135 kts | 344° |
| 2026-04-21 17:21 | 48.07609 | 16.59664 | 920 ft | 136 kts | 343° |
| 2026-04-21 17:21 | 48.08508 | 16.59285 | 712 ft | 134 kts | 344° |
| 2026-04-21 17:22 | 48.09096 | 16.59035 | 625 ft | 129 kts | 343° |
| 2026-04-21 17:22 | 48.09981 | 16.58662 | 618 ft | 66 kts | 344° |
| 2026-04-21 17:22 | 48.10348 | 16.58506 | 612 ft | 48 kts | 344° |
| 2026-04-21 17:22 | 48.10642 | 16.58379 | 613 ft | 41 kts | 341° |
| 2026-04-21 17:23 | 48.10802 | 16.58171 | 615 ft | 25 kts | 316° |
| 2026-04-21 17:23 | 48.10903 | 16.58016 | 609 ft | 14 kts | 315° |
| 2026-04-21 17:23 | 48.10974 | 16.57906 | 615 ft | 15 kts | 313° |
| 2026-04-21 17:23 | 48.11054 | 16.57795 | 621 ft | 16 kts | 332° |
| 2026-04-21 17:24 | 48.11157 | 16.57709 | 616 ft | 18 kts | 309° |
| 2026-04-21 17:24 | 48.11215 | 16.57539 | 613 ft | 19 kts | 296° |
| 2026-04-21 17:24 | 48.11276 | 16.57354 | 612 ft | 21 kts | 296° |
| 2026-04-21 17:24 | 48.11341 | 16.57150 | 612 ft | 23 kts | 295° |
| 2026-04-21 17:25 | 48.11417 | 16.56912 | 614 ft | 26 kts | 297° |
| 2026-04-21 17:25 | 48.11421 | 16.56902 | 615 ft | 3 kts | 297° |
| 2026-04-21 17:25 | 48.11455 | 16.56801 | 612 ft | 14 kts | 296° |
| 2026-04-21 17:25 | 48.11509 | 16.56638 | 615 ft | 22 kts | 296° |
| 2026-04-21 17:26 | 48.11579 | 16.56423 | 615 ft | 23 kts | 296° |
| 2026-04-21 17:26 | 48.11649 | 16.56205 | 613 ft | 23 kts | 296° |
| 2026-04-21 17:26 | 48.11718 | 16.55994 | 616 ft | 20 kts | 296° |
| 2026-04-21 17:26 | 48.11782 | 16.55840 | 614 ft | 15 kts | 336° |
| 2026-04-21 17:27 | 48.11859 | 16.55875 | 611 ft | 11 kts | 26° |
| 2026-04-21 17:27 | 48.11891 | 16.55907 | 620 ft | 2 kts | 66° |
| 2026-04-21 17:27 | 48.11889 | 16.55922 | 614 ft | 1 kts | 107° |
| 2026-04-21 17:27 | 48.11879 | 16.55943 | 614 ft | 3 kts | 127° |
| 2026-04-21 17:28 | 48.11865 | 16.55971 | 609 ft | 3 kts | 125° |
| 2026-04-21 17:28 | 48.11853 | 16.55997 | 613 ft | 3 kts | 124° |
| 2026-04-21 17:28 | 48.11850 | 16.56004 | 611 ft | 0 kts | 124° |
| 2026-04-21 17:28 | 48.11849 | 16.56005 | 611 ft | 0 kts | 124° |